createdAt,value
2023-01-21T07:48:09.247Z,6.52
2023-01-21T07:50:36.415Z,6.91
2023-01-21T07:53:04.703Z,7.20
2023-01-21T07:55:31.988Z,7.19
2023-01-21T07:57:59.586Z,7.25
2023-01-21T08:00:27.325Z,8.15
2023-01-21T08:02:55.283Z,9.05
2023-01-21T08:05:24.118Z,9.82
2023-01-21T08:07:51.578Z,9.43
2023-01-21T08:10:19.507Z,9.38
2023-01-21T08:12:46.413Z,9.71
2023-01-21T08:15:13.295Z,9.87
2023-01-21T08:17:41.957Z,9.23
2023-01-21T08:20:10.233Z,9.93
2023-01-21T08:22:37.899Z,10.35
2023-01-21T08:25:06.096Z,10.22
2023-01-21T08:27:33.507Z,9.99
2023-01-21T08:30:00.424Z,9.93
2023-01-21T08:32:30.706Z,10.05
2023-01-21T08:34:57.995Z,10.80
2023-01-21T08:37:24.931Z,11.04
2023-01-21T08:39:51.803Z,11.49
2023-01-21T08:42:18.677Z,11.67
2023-01-21T08:44:46.515Z,11.33
2023-01-21T08:47:13.448Z,11.67
2023-01-21T08:49:40.290Z,12.23
2023-01-21T08:52:07.420Z,12.88
2023-01-21T08:54:34.309Z,13.20
2023-01-21T08:57:01.144Z,13.66
2023-01-21T08:59:30.066Z,13.32
2023-01-21T09:01:57.224Z,13.07
2023-01-21T09:04:24.240Z,13.13
2023-01-21T09:06:51.146Z,13.19
2023-01-21T09:09:17.948Z,13.47
2023-01-21T09:11:44.829Z,14.04
2023-01-21T09:14:11.846Z,14.16
2023-01-21T09:16:38.813Z,14.02
2023-01-21T09:19:05.863Z,13.44
2023-01-21T09:21:34.858Z,13.62
2023-01-21T09:24:02.891Z,14.02
2023-01-21T09:26:29.788Z,14.57
2023-01-21T09:28:59.460Z,13.98
2023-01-21T09:31:28.961Z,13.73
2023-01-21T09:34:01.600Z,13.28
2023-01-21T09:36:31.380Z,12.62
2023-01-21T09:38:59.304Z,12.28
2023-01-21T09:41:34.965Z,12.32
2023-01-21T09:44:22.491Z,12.54
2023-01-21T09:47:20.095Z,13.11
2023-01-21T09:49:50.183Z,12.99
2023-01-21T09:52:38.436Z,13.85
2023-01-21T09:55:12.433Z,14.02
2023-01-21T09:58:20.664Z,14.02
2023-01-21T10:01:13.518Z,14.77
2023-01-21T10:04:00.129Z,14.40
2023-01-21T10:06:43.267Z,14.40
2023-01-21T10:09:41.729Z,13.67
2023-01-21T10:12:24.290Z,13.64
2023-01-21T10:15:06.370Z,12.96
2023-01-21T10:17:59.680Z,12.70
2023-01-21T10:20:58.961Z,12.63
2023-01-21T10:23:43.037Z,12.18
2023-01-21T10:26:13.793Z,12.02
2023-01-21T10:28:43.771Z,11.81
2023-01-21T10:31:27.468Z,11.92
2023-01-21T10:33:55.350Z,11.79
2023-01-21T10:36:47.258Z,11.79
2023-01-21T10:39:34.941Z,11.77
2023-01-21T10:42:20.348Z,11.76
2023-01-21T10:44:56.992Z,11.67
2023-01-21T10:47:36.295Z,11.68
2023-01-21T10:50:27.717Z,11.69
2023-01-21T10:53:00.617Z,11.71
2023-01-21T10:55:53.676Z,11.70
2023-01-21T10:58:36.002Z,11.77
2023-01-21T11:01:08.370Z,11.71
2023-01-21T11:03:46.257Z,11.72
2023-01-21T11:06:17.071Z,11.68
2023-01-21T11:08:46.914Z,11.74
2023-01-21T11:11:18.672Z,11.70
2023-01-21T11:13:45.532Z,11.66
2023-01-21T11:16:12.511Z,11.67
2023-01-21T11:18:42.877Z,11.70
2023-01-21T11:21:22.959Z,11.67
2023-01-21T11:24:01.043Z,11.74
2023-01-21T11:26:28.990Z,11.74
2023-01-21T11:29:15.673Z,11.80
2023-01-21T11:31:45.510Z,11.84
2023-01-21T11:34:18.341Z,11.94
2023-01-21T11:36:58.719Z,11.85
2023-01-21T11:39:28.079Z,11.91
2023-01-21T11:41:57.411Z,11.91
2023-01-21T11:44:25.018Z,11.87
2023-01-21T11:46:52.031Z,11.80
2023-01-21T11:49:20.351Z,11.87
2023-01-21T11:51:47.440Z,11.99
2023-01-21T11:54:18.662Z,12.03
2023-01-21T11:57:00.883Z,12.13
2023-01-21T11:59:43.578Z,12.11
2023-01-21T12:02:40.652Z,12.20
2023-01-21T12:05:27.528Z,12.19
2023-01-21T12:07:55.315Z,12.21
2023-01-21T12:10:37.387Z,12.13
2023-01-21T12:13:22.866Z,12.18
2023-01-21T12:16:20.942Z,12.26
2023-01-21T12:19:19.256Z,12.28
2023-01-21T12:22:03.801Z,12.32
2023-01-21T12:24:42.535Z,12.31
2023-01-21T12:27:27.859Z,12.30
2023-01-21T12:30:13.865Z,12.33
2023-01-21T12:32:46.233Z,12.51
2023-01-21T12:35:37.525Z,12.55
2023-01-21T12:38:10.820Z,12.60
2023-01-21T12:40:50.703Z,12.62
2023-01-21T12:43:36.843Z,12.63
2023-01-21T12:46:15.628Z,12.55
2023-01-21T12:48:57.043Z,12.58
2023-01-21T12:51:32.677Z,12.67
2023-01-21T12:54:13.597Z,12.62
2023-01-21T12:57:04.638Z,12.69
2023-01-21T12:59:43.892Z,12.55
2023-01-21T13:02:32.365Z,12.74
2023-01-21T13:05:23.408Z,12.79
2023-01-21T13:07:59.370Z,12.94
2023-01-21T13:10:42.301Z,12.99
2023-01-21T13:13:22.267Z,13.10
2023-01-21T13:15:54.442Z,13.18
2023-01-21T13:18:31.997Z,13.20
2023-01-21T13:21:13.867Z,13.23
2023-01-21T13:23:46.898Z,13.59
2023-01-21T13:26:33.962Z,13.51
2023-01-21T13:29:25.483Z,13.54
2023-01-21T13:32:17.396Z,13.97
2023-01-21T13:34:44.205Z,13.81
2023-01-21T13:37:26.680Z,13.66
2023-01-21T13:40:08.938Z,13.42
2023-01-21T13:42:57.770Z,13.27
2023-01-21T13:45:33.670Z,13.10
2023-01-21T13:48:15.722Z,12.88
2023-01-21T13:51:04.524Z,12.75
2023-01-21T13:53:50.272Z,12.73
2023-01-21T13:56:25.267Z,12.64
2023-01-21T13:59:00.949Z,12.62
2023-01-21T14:01:51.883Z,12.63
2023-01-21T14:04:39.865Z,12.64
2023-01-21T14:07:30.934Z,12.63
2023-01-21T14:10:16.548Z,12.61
2023-01-21T14:12:58.710Z,12.60
2023-01-21T14:15:47.469Z,12.54
2023-01-21T14:18:37.360Z,12.46
2023-01-21T14:21:23.040Z,12.44
2023-01-21T14:24:02.090Z,12.37
2023-01-21T14:27:03.733Z,12.32
2023-01-21T14:29:54.155Z,12.33
2023-01-21T14:32:42.574Z,12.31
2023-01-21T14:35:33.061Z,12.26
2023-01-21T14:38:05.675Z,12.32
2023-01-21T14:40:34.153Z,12.19
2023-01-21T14:43:01.586Z,12.18
2023-01-21T14:45:59.081Z,12.06
2023-01-21T14:48:34.944Z,12.14
2023-01-21T14:51:07.738Z,12.02
2023-01-21T14:53:47.701Z,12.04
2023-01-21T14:56:23.518Z,12.07
2023-01-21T14:58:58.172Z,12.01
2023-01-21T15:01:29.439Z,11.92
2023-01-21T15:03:59.837Z,11.96
2023-01-21T15:06:27.308Z,11.94
2023-01-21T15:08:59.485Z,11.93
2023-01-21T15:11:35.207Z,11.97
2023-01-21T15:14:16.958Z,11.81
2023-01-21T15:16:45.564Z,11.80
2023-01-21T15:19:13.105Z,11.86
2023-01-21T15:21:59.635Z,11.76
2023-01-21T15:24:33.227Z,11.78
2023-01-21T15:27:21.896Z,11.67
2023-01-21T15:29:54.876Z,11.70
2023-01-21T15:32:29.814Z,11.62
2023-01-21T15:35:05.917Z,11.62
2023-01-21T15:37:38.659Z,11.45
2023-01-21T15:40:20.405Z,11.62
2023-01-21T15:43:05.782Z,11.48
2023-01-21T15:45:51.629Z,11.58
2023-01-21T15:48:41.713Z,11.56
2023-01-21T15:51:31.821Z,11.60
2023-01-21T15:54:07.405Z,11.66
2023-01-21T15:56:42.490Z,11.69
2023-01-21T15:59:15.534Z,11.69
2023-01-21T16:01:43.174Z,11.65
2023-01-21T16:04:30.818Z,11.59
2023-01-21T16:07:19.468Z,11.53
2023-01-21T16:10:04.947Z,11.59
2023-01-21T16:12:36.819Z,11.55
2023-01-21T16:15:29.646Z,11.46
2023-01-21T16:18:06.683Z,11.55
2023-01-21T16:20:34.375Z,11.50
2023-01-21T16:23:05.439Z,11.50
2023-01-21T16:25:32.493Z,11.39
2023-01-21T16:27:59.378Z,11.41
2023-01-21T16:30:29.735Z,11.35
2023-01-21T16:33:13.092Z,11.35
2023-01-21T16:35:56.240Z,11.23
2023-01-21T16:38:31.532Z,11.13
2023-01-21T16:41:07.368Z,11.02
2023-01-21T16:43:43.828Z,10.98
2023-01-21T16:46:22.404Z,11.04
2023-01-21T16:48:52.125Z,11.07
2023-01-21T16:51:28.753Z,10.83
2023-01-21T16:54:20.159Z,10.88
2023-01-21T16:56:54.512Z,10.98
2023-01-21T16:59:39.029Z,11.07
2023-01-21T17:02:18.766Z,11.17
2023-01-21T17:04:45.880Z,11.37
2023-01-21T17:07:26.660Z,11.49
2023-01-21T17:09:59.848Z,11.48
2023-01-21T17:12:28.721Z,11.67
2023-01-21T17:15:03.583Z,11.61
2023-01-21T17:17:36.115Z,11.66
2023-01-21T17:20:03.579Z,11.62
2023-01-21T17:22:35.161Z,11.79
2023-01-21T17:25:22.470Z,11.74
2023-01-21T17:27:49.734Z,11.72
2023-01-21T17:30:19.078Z,11.68
2023-01-21T17:32:54.059Z,11.70
2023-01-21T17:35:23.693Z,11.58
2023-01-21T17:37:54.061Z,11.49
2023-01-21T17:40:30.402Z,11.44
2023-01-21T17:42:59.295Z,11.27
2023-01-21T17:45:32.293Z,11.13
2023-01-21T17:48:09.433Z,10.86
2023-01-21T17:50:37.188Z,10.93
2023-01-21T17:53:07.390Z,10.75
2023-01-21T17:55:39.178Z,10.73
2023-01-21T17:58:31.759Z,10.81
2023-01-21T18:01:01.802Z,10.84
2023-01-21T18:03:29.047Z,10.95
2023-01-21T18:05:56.682Z,10.99
2023-01-21T18:08:24.698Z,10.93
2023-01-21T18:10:51.679Z,11.15
2023-01-21T18:13:20.268Z,11.22
2023-01-21T18:15:51.520Z,11.32
2023-01-21T18:18:24.330Z,11.40
2023-01-21T18:20:51.731Z,11.34
2023-01-21T18:23:19.915Z,11.38
2023-01-21T18:25:49.317Z,11.28
2023-01-21T18:28:19.652Z,11.27
2023-01-21T18:30:47.332Z,11.42
2023-01-21T18:33:14.709Z,11.35
2023-01-21T18:35:47.933Z,11.35
2023-01-21T18:38:19.256Z,11.34
2023-01-21T18:40:46.324Z,11.24
2023-01-21T18:43:13.154Z,11.25
2023-01-21T18:45:40.461Z,11.21
2023-01-21T18:48:12.348Z,11.32
2023-01-21T18:50:39.351Z,11.35
2023-01-21T18:53:08.012Z,11.42
2023-01-21T18:55:35.591Z,11.30
2023-01-21T18:58:04.606Z,11.26
2023-01-21T19:00:33.966Z,11.26
2023-01-21T19:03:01.677Z,11.33
2023-01-21T19:05:37.008Z,11.20
2023-01-21T19:08:08.116Z,11.29
2023-01-21T19:10:35.000Z,11.27
2023-01-21T19:13:02.043Z,11.31
2023-01-21T19:15:29.701Z,11.30
2023-01-21T19:17:57.684Z,11.29
2023-01-21T19:20:27.373Z,11.34
2023-01-21T19:22:55.658Z,11.31
2023-01-21T19:25:25.840Z,11.25
2023-01-21T19:27:56.024Z,11.29
2023-01-21T19:30:31.385Z,11.19
2023-01-21T19:33:00.777Z,11.13
2023-01-21T19:35:47.972Z,11.09
2023-01-21T19:38:20.239Z,11.00
2023-01-21T19:40:47.744Z,11.05
2023-01-21T19:43:17.235Z,11.08
2023-01-21T19:45:44.823Z,11.10
2023-01-21T19:48:17.605Z,11.12
2023-01-21T19:50:44.955Z,11.17
2023-01-21T19:53:15.650Z,11.14
2023-01-21T19:55:44.402Z,11.24
2023-01-21T19:58:23.984Z,11.20
2023-01-21T20:00:53.667Z,11.15
2023-01-21T20:03:23.539Z,11.11
2023-01-21T20:05:53.837Z,11.04
2023-01-21T20:08:31.635Z,11.10
2023-01-21T20:10:58.619Z,11.10
2023-01-21T20:13:26.418Z,11.17
2023-01-21T20:15:53.460Z,11.14
2023-01-21T20:18:26.217Z,11.02
2023-01-21T20:20:53.955Z,11.11
2023-01-21T20:23:22.722Z,11.30
2023-01-21T20:25:53.715Z,11.13
2023-01-21T20:28:23.791Z,11.10
2023-01-21T20:30:53.614Z,10.99
2023-01-21T20:33:23.244Z,10.96
2023-01-21T20:35:52.985Z,11.04
2023-01-21T20:38:32.068Z,11.17
2023-01-21T20:41:00.878Z,11.14
2023-01-21T20:43:29.054Z,11.04
2023-01-21T20:46:00.929Z,11.03
2023-01-21T20:48:33.016Z,11.05
2023-01-21T20:51:00.476Z,11.08
2023-01-21T20:53:27.892Z,10.95
2023-01-21T20:55:55.843Z,11.10
2023-01-21T20:58:22.955Z,11.05
2023-01-21T21:00:50.122Z,11.06
2023-01-21T21:03:18.426Z,11.08
2023-01-21T21:05:47.217Z,11.14
2023-01-21T21:08:16.454Z,11.15
2023-01-21T21:10:44.299Z,11.11
2023-01-21T21:13:12.666Z,11.14
2023-01-21T21:15:39.979Z,11.21
2023-01-21T21:18:07.235Z,11.12
2023-01-21T21:20:38.810Z,11.03
2023-01-21T21:23:07.668Z,10.98
2023-01-21T21:25:41.214Z,11.20
2023-01-21T21:28:10.534Z,11.06
2023-01-21T21:30:37.572Z,11.09
2023-01-21T21:33:06.651Z,11.00
2023-01-21T21:35:39.815Z,10.98
2023-01-21T21:38:11.470Z,10.93
2023-01-21T21:40:38.892Z,10.87
2023-01-21T21:43:24.287Z,10.76
2023-01-21T21:46:09.990Z,10.76
2023-01-21T21:48:41.064Z,10.53
2023-01-21T21:51:19.937Z,10.52
2023-01-21T21:53:47.009Z,10.43
2023-01-21T21:56:16.727Z,10.46
2023-01-21T21:58:44.070Z,10.43
2023-01-21T22:01:17.068Z,10.43
2023-01-21T22:03:44.690Z,10.27
2023-01-21T22:06:12.721Z,10.37
2023-01-21T22:08:41.884Z,10.28
2023-01-21T22:11:13.551Z,10.28
2023-01-21T22:13:43.507Z,10.28
2023-01-21T22:16:13.884Z,10.22
2023-01-21T22:18:41.202Z,10.30
2023-01-21T22:21:13.758Z,10.37
2023-01-21T22:23:40.740Z,10.26
2023-01-21T22:26:09.707Z,10.21
2023-01-21T22:28:36.948Z,10.15
2023-01-21T22:31:09.385Z,10.19
2023-01-21T22:33:37.843Z,10.13
2023-01-21T22:36:06.146Z,10.22
2023-01-21T22:38:35.191Z,10.12
2023-01-21T22:41:02.861Z,10.09
2023-01-21T22:43:31.378Z,10.13
2023-01-21T22:45:59.971Z,10.18
2023-01-21T22:48:27.869Z,10.21
2023-01-21T22:50:57.110Z,10.27
2023-01-21T22:53:25.232Z,10.37
2023-01-21T22:56:02.377Z,10.22
2023-01-21T22:58:30.869Z,10.32
2023-01-21T23:00:58.663Z,10.38
2023-01-21T23:03:26.569Z,10.38
2023-01-21T23:05:53.787Z,10.37
2023-01-21T23:08:21.031Z,10.29
2023-01-21T23:10:48.393Z,10.25
2023-01-21T23:13:16.551Z,10.25
2023-01-21T23:15:45.337Z,10.25
2023-01-21T23:18:14.373Z,10.08
2023-01-21T23:20:43.300Z,10.04
2023-01-21T23:23:11.802Z,10.08
2023-01-21T23:25:43.008Z,10.14
2023-01-21T23:28:12.016Z,10.22
2023-01-21T23:30:39.188Z,10.33
2023-01-21T23:33:06.815Z,10.42
2023-01-21T23:35:34.747Z,10.53
2023-01-21T23:38:03.154Z,10.55
2023-01-21T23:40:30.078Z,10.53
2023-01-21T23:42:57.089Z,10.63
2023-01-21T23:45:23.987Z,10.59
2023-01-21T23:47:50.825Z,10.55
2023-01-21T23:50:17.968Z,10.53
2023-01-21T23:52:45.143Z,10.59
2023-01-21T23:55:12.149Z,10.50
2023-01-21T23:57:39.050Z,10.55
